Time;durP1;ratioP1;P1;durP2;ratioP2;P2;SDS_P1;SDS_P2;PMS_P1;PMS_P2;Temp;Humidity;BMP_temperature;BMP_pressure;BME280_temperature;BME280_humidity;BME280_pressure;Samples;Min_cycle;Max_cycle;Signal;HPM_P1;HPM_P2
2023/01/17 00:00:19;;;;;;;9.18;5.95;;;;;;;-0.57;100.00;97866.09;5159758;27;20099;-61
2023/01/17 00:02:45;;;;;;;12.77;6.15;;;;;;;0.09;100.00;97835.94;5159735;27;20042;-61
2023/01/17 00:10:40;;;;;;;19.80;7.80;;;;;;;-0.07;100.00;97846.50;5159915;27;20053;-58
2023/01/17 00:13:07;;;;;;;20.15;8.23;;;;;;;-0.30;100.00;97854.88;5159441;27;20050;-64
2023/01/17 00:15:33;;;;;;;18.27;8.77;;;;;;;0.02;100.00;97835.66;5159813;27;20046;-63
2023/01/17 00:17:59;;;;;;;28.90;9.25;;;;;;;0.05;100.00;97835.00;5159644;27;20089;-61
2023/01/17 00:26:02;;;;;;;27.70;7.03;;;;;;;-0.44;100.00;97821.22;5159437;27;20100;-61
2023/01/17 01:35:23;;;;;;;27.25;11.40;;;;;;;0.03;100.00;97630.56;5158422;27;20068;-66
2023/01/17 01:37:49;;;;;;;64.68;12.27;;;;;;;0.38;100.00;97620.19;5158243;27;20079;-63
2023/01/17 01:40:17;;;;;;;35.05;10.65;;;;;;;0.34;100.00;97623.91;5158559;27;20042;-64
2023/01/17 01:42:49;;;;;;;31.17;11.52;;;;;;;0.45;100.00;97630.41;5157133;27;20050;-64
2023/01/17 01:45:18;;;;;;;32.10;10.15;;;;;;;0.12;100.00;97633.16;5158330;27;20078;-60
2023/01/17 01:47:45;;;;;;;40.10;10.60;;;;;;;0.32;100.00;97618.84;5158038;27;20412;-64
2023/01/17 01:50:12;;;;;;;27.67;9.20;;;;;;;0.35;100.00;97625.47;5158385;27;20046;-59
2023/01/17 01:52:42;;;;;;;28.77;10.30;;;;;;;0.55;100.00;97629.97;5158109;27;20051;-64
2023/01/17 01:55:13;;;;;;;48.20;11.77;;;;;;;0.17;100.00;97636.44;5158361;27;20407;-64
2023/01/17 01:57:43;;;;;;;33.40;12.13;;;;;;;0.66;100.00;97614.13;5157823;27;20420;-64
2023/01/17 02:00:16;;;;;;;45.47;10.52;;;;;;;0.67;100.00;97621.13;5158141;27;20061;-62
2023/01/17 02:02:45;;;;;;;32.08;10.80;;;;;;;0.39;100.00;97626.38;5157883;27;20050;-60
2023/01/17 02:05:14;;;;;;;13.20;5.95;;;;;;;0.10;100.00;97630.81;5158094;27;20046;-63
2023/01/17 02:07:45;;;;;;;34.20;9.93;;;;;;;0.51;100.00;97617.50;5157723;27;20050;-60
2023/01/17 02:10:11;;;;;;;36.15;10.38;;;;;;;0.16;100.00;97621.38;5157915;27;20050;-64
2023/01/17 02:12:38;;;;;;;35.58;8.88;;;;;;;0.05;100.00;97592.53;5158164;27;20134;-57
2023/01/17 02:15:06;;;;;;;28.75;8.88;;;;;;;0.34;100.00;97576.16;5157733;27;20054;-60
2023/01/17 02:17:46;;;;;;;28.30;9.05;;;;;;;0.67;100.00;97573.34;5158072;27;20054;-58
2023/01/17 02:20:42;;;;;;;31.10;10.50;;;;;;;0.37;100.00;97578.19;5157612;27;20047;-61
2023/01/17 02:23:38;;;;;;;25.67;5.85;;;;;;;-0.08;100.00;97576.31;5157650;27;20046;-61
2023/01/17 02:26:47;;;;;;;22.73;8.45;;;;;;;0.14;100.00;97553.56;5157879;27;20047;-62
2023/01/17 02:29:59;;;;;;;22.10;8.75;;;;;;;0.37;100.00;97539.66;5157545;27;20097;-63
2023/01/17 02:32:39;;;;;;;25.52;10.15;;;;;;;0.31;100.00;97536.41;5157657;27;20072;-60
2023/01/17 02:35:13;;;;;;;29.77;7.93;;;;;;;0.16;100.00;97516.28;5157658;27;20061;-60
2023/01/17 02:37:47;;;;;;;20.77;7.30;;;;;;;0.32;100.00;97510.22;5157539;27;20050;-61
2023/01/17 02:40:19;;;;;;;27.08;7.63;;;;;;;0.21;100.00;97504.50;5157926;27;20057;-58
2023/01/17 02:42:51;;;;;;;17.25;7.78;;;;;;;0.31;100.00;97490.56;5157387;27;20050;-60
2023/01/17 02:45:18;;;;;;;12.75;6.50;;;;;;;0.07;100.00;97487.88;5157308;27;20071;-62
2023/01/17 02:47:45;;;;;;;29.63;8.63;;;;;;;0.32;100.00;97475.97;5157390;27;20463;-63
2023/01/17 02:50:16;;;;;;;36.90;9.45;;;;;;;0.46;100.00;97460.22;5157291;27;20099;-61
2023/01/17 02:52:59;;;;;;;19.73;9.38;;;;;;;0.35;100.00;97472.59;5158240;27;20054;-62
2023/01/17 02:55:39;;;;;;;20.73;9.13;;;;;;;0.40;100.00;97455.41;5160977;27;20051;-63
2023/01/17 02:58:23;;;;;;;35.80;8.43;;;;;;;0.33;100.00;97453.28;5161224;27;20145;-59
2023/01/17 03:01:02;;;;;;;26.80;8.95;;;;;;;0.42;100.00;97453.16;5160668;27;20403;-62
2023/01/17 03:03:34;;;;;;;26.85;9.52;;;;;;;0.39;100.00;97434.97;5160550;27;20051;-64
2023/01/17 03:06:10;;;;;;;20.80;7.75;;;;;;;0.58;100.00;97426.28;5160770;27;20046;-59
2023/01/17 03:08:38;;;;;;;13.85;6.57;;;;;;;0.41;100.00;97444.28;5160531;27;20055;-59
2023/01/17 03:11:05;;;;;;;16.35;8.02;;;;;;;0.48;100.00;97430.22;5160901;27;20084;-64
2023/01/17 03:13:32;;;;;;;17.73;6.80;;;;;;;0.21;100.00;97421.75;5160597;27;20050;-57
2023/01/17 03:15:58;;;;;;;14.40;6.05;;;;;;;0.28;100.00;97415.00;5160472;27;20058;-65
2023/01/17 03:18:24;;;;;;;15.13;6.47;;;;;;;0.18;100.00;97406.25;5160693;27;20050;-57
2023/01/17 03:20:52;;;;;;;20.15;7.35;;;;;;;0.53;100.00;97394.16;5160988;27;20102;-61
2023/01/17 03:23:18;;;;;;;12.90;6.22;;;;;;;0.32;100.00;97405.09;5160374;27;20122;-64
2023/01/17 03:25:44;;;;;;;10.77;6.15;;;;;;;0.19;100.00;97396.25;5160361;27;20137;-60
2023/01/17 03:28:10;;;;;;;12.93;6.57;;;;;;;0.22;100.00;97387.50;5160325;27;20051;-64
2023/01/17 03:30:37;;;;;;;18.52;6.78;;;;;;;0.64;100.00;97379.84;5160298;27;20046;-58
2023/01/17 03:33:03;;;;;;;24.95;8.60;;;;;;;0.49;100.00;97388.66;5160444;27;20043;-64
2023/01/17 03:35:29;;;;;;;23.15;9.45;;;;;;;0.62;100.00;97381.31;5160131;27;20106;-61
2023/01/17 03:37:56;;;;;;;16.45;6.45;;;;;;;0.61;100.00;97374.38;5160424;27;20422;-63
2023/01/17 03:40:22;;;;;;;11.60;6.15;;;;;;;0.61;100.00;97377.84;5160128;27;20043;-57
2023/01/17 03:42:48;;;;;;;13.80;6.45;;;;;;;0.49;100.00;97385.97;5160440;27;20399;-64
2023/01/17 03:45:15;;;;;;;20.75;8.18;;;;;;;0.35;100.00;97404.44;5160128;27;20202;-58
2023/01/17 03:47:41;;;;;;;13.35;6.38;;;;;;;0.44;100.00;97378.91;5160414;27;20046;-61
2023/01/17 03:50:09;;;;;;;18.05;6.85;;;;;;;0.51;100.00;97358.66;5159967;27;20046;-64
2023/01/17 03:52:35;;;;;;;15.90;7.05;;;;;;;0.40;100.00;97358.34;5159870;27;20061;-61
2023/01/17 03:55:02;;;;;;;14.52;6.80;;;;;;;0.37;100.00;97361.75;5160080;27;20043;-64
2023/01/17 03:57:29;;;;;;;13.25;7.05;;;;;;;0.35;100.00;97354.00;5160103;27;20055;-59
2023/01/17 03:59:55;;;;;;;13.45;6.60;;;;;;;0.49;100.00;97340.13;5160085;27;20185;-60
2023/01/17 04:02:21;;;;;;;17.02;6.93;;;;;;;0.63;100.00;97337.03;5159897;27;20331;-61
2023/01/17 04:04:47;;;;;;;12.77;6.25;;;;;;;0.55;100.00;97337.97;5158836;27;20051;-61
2023/01/17 04:07:13;;;;;;;12.25;6.75;;;;;;;0.62;100.00;97336.25;5159818;27;20108;-64
2023/01/17 04:09:40;;;;;;;13.13;6.35;;;;;;;0.49;100.00;97331.25;5159909;27;20047;-59
2023/01/17 04:12:08;;;;;;;9.85;5.80;;;;;;;0.42;100.00;97343.41;5159599;27;20051;-64
2023/01/17 04:14:34;;;;;;;12.68;6.43;;;;;;;0.69;100.00;97327.56;5159871;27;20051;-64
2023/01/17 04:17:01;;;;;;;12.55;5.75;;;;;;;0.57;100.00;97341.13;5159503;27;20298;-58
2023/01/17 04:19:28;;;;;;;12.68;6.05;;;;;;;0.45;100.00;97329.25;5159907;27;20137;-62
2023/01/17 04:21:54;;;;;;;11.70;6.13;;;;;;;0.52;100.00;97339.44;5159395;27;20106;-62
2023/01/17 04:24:20;;;;;;;15.27;5.05;;;;;;;0.35;100.00;97337.03;5159534;27;20055;-58
2023/01/17 04:26:46;;;;;;;14.27;6.72;;;;;;;0.70;100.00;97312.97;5159453;27;20054;-63
2023/01/17 04:29:13;;;;;;;13.70;7.20;;;;;;;0.79;100.00;97305.50;5159289;27;20051;-57
2023/01/17 04:31:39;;;;;;;9.70;4.90;;;;;;;0.58;100.00;97311.09;5159477;27;20103;-62
2023/01/17 04:34:06;;;;;;;12.60;5.15;;;;;;;0.39;100.00;97313.66;5159144;27;20057;-56
2023/01/17 04:36:32;;;;;;;23.70;7.13;;;;;;;0.66;100.00;97301.28;5159383;27;20046;-63
2023/01/17 04:38:58;;;;;;;15.20;6.65;;;;;;;0.47;100.00;97312.75;5159226;27;20407;-59
2023/01/17 04:41:24;;;;;;;14.63;6.97;;;;;;;0.76;100.00;97302.69;5159430;27;20042;-61
2023/01/17 04:43:51;;;;;;;20.38;8.00;;;;;;;0.60;100.00;97303.47;5159209;27;20055;-60
2023/01/17 04:46:17;;;;;;;19.88;8.23;;;;;;;0.63;100.00;97300.09;5159338;27;20348;-62
2023/01/17 04:48:44;;;;;;;20.40;7.85;;;;;;;0.62;100.00;97301.19;5158814;27;20054;-64
2023/01/17 04:51:10;;;;;;;28.60;8.88;;;;;;;0.80;100.00;97295.47;5158921;27;20077;-59
2023/01/17 04:53:36;;;;;;;21.60;7.90;;;;;;;0.66;100.00;97310.16;5159164;27;20150;-64
2023/01/17 04:56:08;;;;;;;21.10;8.38;;;;;;;0.51;100.00;97305.53;5158824;27;20043;-61
2023/01/17 04:58:35;;;;;;;18.23;8.40;;;;;;;0.47;100.00;97293.88;5158960;27;20062;-58
2023/01/17 05:01:02;;;;;;;23.90;8.55;;;;;;;0.65;100.00;97294.34;5158687;27;20047;-63
2023/01/17 05:03:30;;;;;;;16.92;7.32;;;;;;;0.55;100.00;97292.13;5159042;27;20368;-58
2023/01/17 05:05:56;;;;;;;18.50;6.85;;;;;;;0.58;100.00;97289.53;5158636;27;20450;-63
2023/01/17 05:08:22;;;;;;;29.58;9.63;;;;;;;0.89;100.00;97261.81;5159018;27;20051;-62
2023/01/17 05:10:49;;;;;;;31.92;10.90;;;;;;;0.73;100.00;97277.19;5158625;27;20047;-57
2023/01/17 05:13:15;;;;;;;18.27;9.77;;;;;;;0.75;100.00;97288.44;5158996;27;20130;-63
2023/01/17 05:15:41;;;;;;;21.55;9.00;;;;;;;0.64;100.00;97279.28;5158051;27;20060;-60
2023/01/17 05:18:11;;;;;;;22.98;9.38;;;;;;;0.86;100.00;97267.13;5158306;27;20047;-66
2023/01/17 05:20:38;;;;;;;16.35;7.53;;;;;;;0.75;100.00;97283.03;5158652;27;20384;-68
2023/01/17 05:23:04;;;;;;;18.80;8.27;;;;;;;0.74;100.00;97275.31;5158606;27;20054;-62
2023/01/17 05:25:31;;;;;;;18.38;9.23;;;;;;;1.01;100.00;97263.66;5158452;27;20054;-67
2023/01/17 05:27:59;;;;;;;23.63;8.80;;;;;;;0.85;100.00;97269.03;5158337;27;20081;-63
2023/01/17 05:30:26;;;;;;;22.55;9.43;;;;;;;0.90;100.00;97274.19;5158457;27;20387;-64
2023/01/17 05:32:54;;;;;;;26.30;11.65;;;;;;;1.03;100.00;97276.78;5158150;27;20107;-69
2023/01/17 05:35:23;;;;;;;20.58;9.48;;;;;;;0.99;100.00;97278.63;5158382;27;20051;-67
2023/01/17 05:37:50;;;;;;;19.77;9.93;;;;;;;0.98;100.00;97277.84;5158143;27;20058;-64
2023/01/17 05:40:18;;;;;;;17.10;9.18;;;;;;;0.90;100.00;97282.28;5158553;27;20046;-58
2023/01/17 05:42:45;;;;;;;20.30;8.23;;;;;;;0.90;100.00;97276.88;5157907;27;20055;-62
2023/01/17 05:45:15;;;;;;;23.42;9.48;;;;;;;1.17;100.00;97277.16;5157902;27;20058;-61
2023/01/17 05:47:42;;;;;;;17.80;8.40;;;;;;;1.04;100.00;97289.94;5158154;27;20084;-60
2023/01/17 05:50:09;;;;;;;19.95;8.20;;;;;;;0.94;100.00;97291.25;5157686;27;20053;-60
2023/01/17 05:52:36;;;;;;;20.95;8.82;;;;;;;1.21;100.00;97280.72;5158174;27;20289;-61
2023/01/17 05:55:05;;;;;;;27.42;9.68;;;;;;;1.17;100.00;97291.44;5157651;27;20053;-65
2023/01/17 05:57:31;;;;;;;22.83;9.85;;;;;;;1.37;100.00;97286.88;5158208;27;20082;-59
2023/01/17 05:59:58;;;;;;;14.65;7.68;;;;;;;1.17;100.00;97285.25;5158030;27;20139;-63
2023/01/17 06:02:25;;;;;;;20.63;9.13;;;;;;;1.09;100.00;97302.38;5158341;27;20058;-59
2023/01/17 06:04:51;;;;;;;52.20;23.17;;;;;;;1.26;100.00;97295.84;5157568;27;20439;-65
2023/01/17 06:07:17;;;;;;;21.92;10.73;;;;;;;1.44;100.00;97299.00;5158111;27;20047;-59
2023/01/17 06:09:43;;;;;;;16.00;7.78;;;;;;;1.25;100.00;97305.09;5157593;27;20051;-65
2023/01/17 06:12:10;;;;;;;17.55;9.82;;;;;;;1.32;100.00;97316.06;5157548;27;20334;-60
2023/01/17 06:14:37;;;;;;;20.70;10.30;;;;;;;1.42;100.00;97310.13;5157692;27;20354;-59
2023/01/17 06:17:03;;;;;;;19.67;9.93;;;;;;;1.39;100.00;97319.72;5157571;27;20055;-63
2023/01/17 06:19:29;;;;;;;16.58;9.25;;;;;;;1.41;100.00;97322.06;5157561;27;20051;-60
2023/01/17 06:21:56;;;;;;;28.77;12.10;;;;;;;1.72;100.00;97315.06;5157417;27;20115;-64
2023/01/17 06:24:22;;;;;;;14.60;8.20;;;;;;;1.38;100.00;97342.44;5157668;27;20051;-56
2023/01/17 06:26:48;;;;;;;20.10;8.65;;;;;;;1.51;100.00;97342.38;5157326;27;20051;-63
2023/01/17 06:29:15;;;;;;;14.70;8.68;;;;;;;1.58;100.00;97339.84;5160591;27;20046;-60
2023/01/17 06:31:41;;;;;;;17.38;7.88;;;;;;;1.27;100.00;97351.44;5161239;27;20053;-62
2023/01/17 06:34:07;;;;;;;12.63;6.88;;;;;;;1.20;100.00;97354.75;5161615;27;20057;-65
2023/01/17 06:36:33;;;;;;;17.55;9.07;;;;;;;1.44;100.00;97342.19;5161186;27;20047;-62
2023/01/17 06:39:00;;;;;;;18.38;8.30;;;;;;;1.45;100.00;97339.13;5161430;27;20046;-62
2023/01/17 06:41:26;;;;;;;19.13;10.05;;;;;;;1.53;100.00;97350.88;5161144;27;20059;-66
2023/01/17 06:43:52;;;;;;;21.27;10.18;;;;;;;1.59;100.00;97352.97;5160722;27;20062;-66
2023/01/17 06:46:19;;;;;;;41.50;21.70;;;;;;;1.56;100.00;97347.50;5160968;27;20386;-59
2023/01/17 06:48:47;;;;;;;23.90;12.88;;;;;;;1.34;100.00;97357.78;5160901;27;20313;-58
2023/01/17 06:51:14;;;;;;;16.13;8.75;;;;;;;1.35;100.00;97340.44;5161125;27;20054;-61
2023/01/17 06:53:40;;;;;;;17.20;8.13;;;;;;;1.28;100.00;97336.78;5160835;27;20055;-66
2023/01/17 06:56:07;;;;;;;19.38;11.30;;;;;;;1.33;100.00;97337.31;5161028;27;20051;-60
2023/01/17 06:58:33;;;;;;;20.05;11.60;;;;;;;1.59;100.00;97334.06;5160625;27;20138;-60
2023/01/17 07:01:05;;;;;;;15.48;6.97;;;;;;;1.32;100.00;97345.75;5160884;27;20057;-64
2023/01/17 07:03:32;;;;;;;30.85;15.57;;;;;;;1.55;100.00;97325.09;5160410;27;20046;-64
2023/01/17 07:06:00;;;;;;;18.52;10.65;;;;;;;1.70;100.00;97338.94;5160935;27;20042;-65
2023/01/17 07:08:27;;;;;;;18.75;11.40;;;;;;;1.55;100.00;97338.59;5160336;27;20061;-64
2023/01/17 07:10:58;;;;;;;13.63;7.43;;;;;;;1.41;100.00;97357.19;5160610;27;20432;-58
2023/01/17 07:13:24;;;;;;;17.73;10.35;;;;;;;1.40;100.00;97337.50;5160470;27;20074;-63
2023/01/17 07:15:50;;;;;;;14.85;8.57;;;;;;;1.76;100.00;97324.81;5160357;27;20058;-63
2023/01/17 07:18:19;;;;;;;15.65;9.25;;;;;;;1.82;100.00;97325.31;5160478;27;20059;-65
2023/01/17 07:20:46;;;;;;;19.63;9.45;;;;;;;1.62;100.00;97343.41;5160307;27;20054;-61
2023/01/17 07:23:12;;;;;;;23.92;10.00;;;;;;;1.49;100.00;97350.81;5160400;27;20395;-74
2023/01/17 07:25:38;;;;;;;33.08;17.38;;;;;;;1.61;100.00;97341.84;5160112;27;20065;-63
2023/01/17 07:28:04;;;;;;;19.05;11.93;;;;;;;1.62;100.00;97338.78;5160616;27;20062;-65
2023/01/17 07:30:31;;;;;;;30.13;13.45;;;;;;;1.52;100.00;97341.22;5160049;27;20061;-64
2023/01/17 07:32:57;;;;;;;20.00;10.75;;;;;;;1.63;100.00;97343.06;5160089;27;20062;-65
2023/01/17 07:35:25;;;;;;;21.02;10.25;;;;;;;1.62;100.00;97336.06;5159861;27;20042;-64
2023/01/17 07:37:53;;;;;;;32.25;11.20;;;;;;;1.79;100.00;97323.31;5160535;27;20297;-65
2023/01/17 07:40:21;;;;;;;30.17;11.13;;;;;;;1.75;100.00;97341.38;5160091;27;20074;-62
2023/01/17 07:42:47;;;;;;;15.90;10.25;;;;;;;1.74;100.00;97346.00;5159822;27;20047;-68
2023/01/17 07:45:15;;;;;;;14.77;8.00;;;;;;;1.54;100.00;97344.38;5159892;27;20050;-61
2023/01/17 07:47:41;;;;;;;15.57;8.25;;;;;;;1.81;100.00;97334.56;5159654;27;20046;-61
2023/01/17 07:50:09;;;;;;;18.27;10.02;;;;;;;1.79;100.00;97345.72;5159978;27;20057;-66
2023/01/17 07:52:35;;;;;;;11.20;5.95;;;;;;;1.65;100.00;97346.19;5159672;27;20078;-60
2023/01/17 07:55:03;;;;;;;19.92;9.50;;;;;;;1.65;100.00;97340.00;5159826;27;20351;-66
2023/01/17 07:57:31;;;;;;;16.40;8.68;;;;;;;1.66;100.00;97338.84;5159433;27;20400;-61
2023/01/17 07:59:57;;;;;;;27.40;12.95;;;;;;;1.83;100.00;97333.09;5159947;27;20091;-59
2023/01/17 08:02:23;;;;;;;17.08;9.70;;;;;;;1.92;100.00;97324.00;5159472;27;20050;-64
2023/01/17 08:04:49;;;;;;;16.35;9.45;;;;;;;1.73;100.00;97330.91;5159681;27;20050;-59
2023/01/17 08:07:16;;;;;;;18.60;10.77;;;;;;;1.81;100.00;97335.34;5159533;27;20071;-64
2023/01/17 08:09:43;;;;;;;22.45;9.00;;;;;;;1.73;100.00;97332.84;5159343;27;20046;-61
2023/01/17 08:12:10;;;;;;;17.75;9.07;;;;;;;1.75;100.00;97346.78;5159715;27;20054;-64
2023/01/17 08:14:36;;;;;;;18.08;10.68;;;;;;;1.86;100.00;97331.59;5159411;27;20066;-59
2023/01/17 08:17:06;;;;;;;13.30;8.25;;;;;;;1.89;100.00;97322.78;5159670;27;20315;-64
2023/01/17 08:19:32;;;;;;;17.63;10.52;;;;;;;2.23;100.00;97320.41;5159419;27;20309;-64
2023/01/17 08:21:58;;;;;;;17.00;10.20;;;;;;;1.70;100.00;97333.53;5159640;27;20052;-59
2023/01/17 08:24:25;;;;;;;18.50;10.57;;;;;;;1.85;100.00;97327.31;5159339;27;20046;-65
2023/01/17 08:26:53;;;;;;;21.38;12.30;;;;;;;1.85;100.00;97330.81;5159512;27;20055;-61
2023/01/17 08:29:20;;;;;;;24.50;12.18;;;;;;;2.04;100.00;97323.88;5159122;27;20072;-63
2023/01/17 08:31:47;;;;;;;13.30;7.82;;;;;;;1.55;100.00;97341.31;5158842;27;20061;-57
2023/01/17 08:34:13;;;;;;;17.92;9.75;;;;;;;1.88;100.00;97326.63;5159324;27;20047;-68
2023/01/17 08:36:41;;;;;;;16.73;9.73;;;;;;;1.91;100.00;97331.31;5159644;27;20112;-67
2023/01/17 08:39:08;;;;;;;12.60;7.65;;;;;;;1.98;100.00;97330.69;5159557;27;20050;-63
2023/01/17 08:41:35;;;;;;;13.55;8.23;;;;;;;1.85;100.00;97340.84;5159180;27;20050;-64
2023/01/17 08:44:01;;;;;;;12.13;7.25;;;;;;;1.79;100.00;97326.81;5159340;27;20054;-58
2023/01/17 08:46:28;;;;;;;14.57;7.85;;;;;;;1.95;100.00;97323.28;5158818;27;20053;-64
2023/01/17 08:48:57;;;;;;;13.95;8.20;;;;;;;1.96;100.00;97322.94;5159108;27;20408;-60
2023/01/17 08:51:25;;;;;;;14.27;8.35;;;;;;;2.11;100.00;97319.41;5158168;27;20050;-62
2023/01/17 08:53:51;;;;;;;10.98;7.07;;;;;;;2.01;100.00;97333.47;5158979;27;20058;-58
2023/01/17 08:56:17;;;;;;;21.88;9.65;;;;;;;2.20;100.00;97342.75;5158573;27;20050;-65
2023/01/17 08:58:44;;;;;;;14.38;8.10;;;;;;;1.98;100.00;97347.69;5158531;27;20050;-57
2023/01/17 09:01:10;;;;;;;17.10;7.95;;;;;;;1.84;100.00;97347.38;5158794;27;20368;-62
2023/01/17 09:03:37;;;;;;;15.38;8.38;;;;;;;1.88;100.00;97335.50;5158596;27;20059;-64
2023/01/17 09:06:05;;;;;;;13.82;7.63;;;;;;;1.71;100.00;97335.13;5158747;27;20050;-62
2023/01/17 09:08:31;;;;;;;21.88;9.98;;;;;;;2.01;100.00;97319.97;5158402;27;20397;-63
2023/01/17 09:10:58;;;;;;;18.85;10.13;;;;;;;1.98;100.00;97326.06;5158448;27;20107;-65
2023/01/17 09:13:24;;;;;;;45.60;22.50;;;;;;;1.95;100.00;97318.66;5158258;27;20301;-61
2023/01/17 09:15:54;;;;;;;34.80;17.80;;;;;;;1.98;100.00;97317.97;5158715;27;20051;-64
2023/01/17 09:18:21;;;;;;;28.77;15.35;;;;;;;2.21;100.00;97303.78;5159293;27;20092;-61
2023/01/17 09:20:48;;;;;;;30.60;12.48;;;;;;;2.18;100.00;97307.97;5158880;27;20050;-65
2023/01/17 09:23:14;;;;;;;20.08;11.60;;;;;;;1.95;100.00;97313.25;5158121;27;20053;-59
2023/01/17 09:25:43;;;;;;;22.65;12.32;;;;;;;2.12;100.00;97301.25;5158526;27;20110;-63
2023/01/17 09:28:10;;;;;;;30.77;14.48;;;;;;;2.21;100.00;97295.66;5157992;27;20050;-65
2023/01/17 09:30:36;;;;;;;25.42;13.25;;;;;;;2.13;100.00;97289.31;5157967;27;20134;-65
2023/01/17 09:33:02;;;;;;;26.40;12.38;;;;;;;2.15;100.00;97299.78;5158248;27;20047;-58
2023/01/17 09:35:28;;;;;;;22.83;14.23;;;;;;;2.17;100.00;97297.53;5157825;27;20054;-65
2023/01/17 09:37:55;;;;;;;25.35;13.13;;;;;;;2.23;100.00;97283.38;5158238;27;20423;-56
2023/01/17 09:40:24;;;;;;;38.13;14.95;;;;;;;2.33;100.00;97282.78;5158114;27;20073;-62
2023/01/17 09:42:56;;;;;;;33.35;16.25;;;;;;;2.22;100.00;97291.81;5158165;27;20050;-63
2023/01/17 09:45:25;;;;;;;24.15;11.80;;;;;;;1.97;100.00;97292.09;5157760;27;20051;-56
2023/01/17 09:47:53;;;;;;;22.25;11.68;;;;;;;2.14;100.00;97285.50;5158208;27;20058;-60
2023/01/17 09:50:30;;;;;;;33.53;16.92;;;;;;;2.35;100.00;97277.00;5157562;27;20047;-60
2023/01/17 09:53:01;;;;;;;29.48;15.55;;;;;;;2.12;100.00;97274.25;5157479;27;20046;-59
2023/01/17 09:55:39;;;;;;;23.42;11.25;;;;;;;2.08;100.00;97274.16;5157500;27;20393;-64
2023/01/17 09:58:11;;;;;;;25.65;12.10;;;;;;;2.20;100.00;97272.44;5158497;27;20078;-65
2023/01/17 10:00:53;;;;;;;25.10;13.98;;;;;;;2.55;100.00;97264.25;5157872;27;20465;-61
2023/01/17 10:03:30;;;;;;;27.58;12.30;;;;;;;2.39;100.00;97282.50;5157023;27;20055;-64
2023/01/17 10:06:09;;;;;;;27.17;14.57;;;;;;;2.31;100.00;97286.97;5158134;27;20121;-66
2023/01/17 10:09:13;;;;;;;23.48;12.88;;;;;;;2.38;100.00;97294.47;5157588;27;20416;-65
2023/01/17 10:11:53;;;;;;;31.58;14.73;;;;;;;2.57;100.00;97289.03;5157609;27;20108;-61
2023/01/17 10:14:46;;;;;;;34.70;15.13;;;;;;;2.31;100.00;97289.69;5157859;27;20081;-61
2023/01/17 10:17:21;;;;;;;39.28;19.60;;;;;;;2.42;100.00;97273.66;5157466;27;20047;-59
2023/01/17 10:20:09;;;;;;;35.95;17.00;;;;;;;2.32;100.00;97275.03;5157322;27;20047;-59
2023/01/17 10:23:03;;;;;;;37.55;17.23;;;;;;;2.44;100.00;97276.81;5157496;27;20407;-58
2023/01/17 10:25:42;;;;;;;43.50;18.73;;;;;;;2.79;100.00;97276.66;5157399;27;20111;-62
2023/01/17 10:28:14;;;;;;;42.95;15.25;;;;;;;2.43;100.00;97280.63;5157659;27;20131;-64
2023/01/17 10:30:47;;;;;;;44.83;15.88;;;;;;;2.46;100.00;97277.22;5157229;27;20408;-57
2023/01/17 10:33:18;;;;;;;34.63;16.52;;;;;;;2.38;100.00;97265.50;5157051;27;20103;-62
2023/01/17 10:35:53;;;;;;;30.50;15.32;;;;;;;2.65;100.00;97263.66;5157170;27;20051;-58
2023/01/17 10:38:24;;;;;;;25.88;11.40;;;;;;;2.48;100.00;97277.66;5157400;27;20047;-61
2023/01/17 10:40:56;;;;;;;31.70;15.32;;;;;;;2.74;100.00;97274.28;5157402;27;20050;-63
2023/01/17 10:43:30;;;;;;;33.00;16.20;;;;;;;2.78;100.00;97281.31;5157189;27;20050;-61
2023/01/17 10:45:56;;;;;;;35.23;14.53;;;;;;;2.49;100.00;97306.25;5157627;27;20331;-60
2023/01/17 10:48:34;;;;;;;32.50;16.92;;;;;;;2.38;100.00;97289.81;5157126;27;20057;-63
2023/01/17 10:51:11;;;;;;;47.28;20.23;;;;;;;2.52;100.00;97287.38;5157567;27;20119;-59
2023/01/17 10:53:57;;;;;;;39.47;15.82;;;;;;;2.59;100.00;97286.75;5157290;27;20058;-60
2023/01/17 10:56:28;;;;;;;31.90;16.95;;;;;;;2.61;100.00;97298.00;5157310;27;20054;-58
2023/01/17 10:59:08;;;;;;;41.28;17.17;;;;;;;2.55;100.00;97294.00;5157162;27;20078;-66
2023/01/17 11:01:35;;;;;;;46.33;17.40;;;;;;;2.52;100.00;97297.44;5156772;27;20043;-60
2023/01/17 11:04:02;;;;;;;39.08;19.60;;;;;;;2.81;100.00;97296.81;5156956;27;20050;-65
2023/01/17 11:06:32;;;;;;;42.88;18.05;;;;;;;2.56;100.00;97307.16;5156679;27;20178;-65
2023/01/17 11:09:00;;;;;;;44.97;20.80;;;;;;;2.76;100.00;97297.09;5156691;27;20133;-59
2023/01/17 11:11:30;;;;;;;55.53;24.10;;;;;;;2.80;100.00;97294.50;5155698;27;20129;-61
2023/01/17 11:13:59;;;;;;;52.40;24.75;;;;;;;3.28;100.00;97297.63;5157332;27;20053;-64
2023/01/17 11:16:30;;;;;;;43.55;20.67;;;;;;;2.63;100.00;97322.75;5160523;27;20057;-64
2023/01/17 11:19:15;;;;;;;55.92;22.15;;;;;;;2.86;100.00;97311.19;5160324;27;20313;-58
2023/01/17 11:21:50;;;;;;;49.13;20.90;;;;;;;2.88;100.00;97322.47;5160608;27;20051;-64
2023/01/17 11:24:23;;;;;;;42.28;20.55;;;;;;;2.92;100.00;97323.28;5160519;27;20054;-60
2023/01/17 11:26:50;;;;;;;36.73;19.10;;;;;;;2.68;100.00;97314.38;5160556;27;20311;-63
2023/01/17 11:29:30;;;;;;;40.72;19.88;;;;;;;2.47;100.00;97300.44;5159961;27;20111;-66
2023/01/17 11:31:56;;;;;;;78.13;21.60;;;;;;;2.99;100.00;97296.34;5159788;27;20051;-60
2023/01/17 11:34:24;;;;;;;47.28;22.38;;;;;;;2.73;100.00;97305.97;5159967;27;20396;-63
2023/01/17 11:37:09;;;;;;;58.22;25.38;;;;;;;3.01;100.00;97284.03;5160082;27;20051;-72
2023/01/17 11:39:35;;;;;;;66.22;26.38;;;;;;;2.96;100.00;97297.84;5160409;27;20065;-73
2023/01/17 11:42:05;;;;;;;53.58;19.02;;;;;;;2.57;100.00;97287.13;5159861;27;20047;-61
2023/01/17 11:44:33;;;;;;;56.70;23.88;;;;;;;2.75;100.00;97287.44;5160196;27;20145;-61
2023/01/17 11:47:18;;;;;;;67.40;23.48;;;;;;;3.05;100.00;97290.28;5159758;27;20061;-61
2023/01/17 11:49:46;;;;;;;125.97;25.88;;;;;;;2.95;100.00;97292.81;5159999;27;20387;-59
2023/01/17 11:52:20;;;;;;;77.43;24.35;;;;;;;2.80;100.00;97297.97;5159636;27;20054;-65
2023/01/17 11:54:48;;;;;;;77.50;25.02;;;;;;;2.99;100.00;97296.34;5159446;27;20077;-67
2023/01/17 11:57:21;;;;;;;72.82;24.58;;;;;;;2.96;100.00;97305.19;5159799;27;20057;-67
2023/01/17 11:59:48;;;;;;;49.57;21.30;;;;;;;2.93;100.00;97304.00;5159593;27;20046;-67
2023/01/17 12:02:54;;;;;;;67.88;23.75;;;;;;;2.97;100.00;97309.47;5159936;27;20280;-65
2023/01/17 12:05:31;;;;;;;85.68;23.88;;;;;;;3.07;100.00;97314.31;5159390;27;20054;-66
2023/01/17 12:08:07;;;;;;;160.52;24.73;;;;;;;2.88;100.00;97317.03;5159735;27;20369;-65
2023/01/17 12:10:41;;;;;;;94.85;23.55;;;;;;;2.35;100.00;97304.84;5159663;27;20324;-61
2023/01/17 12:19:02;;;;;;;56.45;22.15;;;;;;;2.54;100.00;97270.81;5159706;27;20065;-65
2023/01/17 12:21:42;;;;;;;137.65;22.95;;;;;;;2.67;100.00;97266.81;5159548;27;20066;-70
2023/01/17 12:24:48;;;;;;;77.57;21.45;;;;;;;2.60;100.00;97263.97;5159332;27;20080;-63
2023/01/17 12:27:23;;;;;;;145.38;22.52;;;;;;;2.47;100.00;97257.94;5158586;27;20054;-65
2023/01/17 12:30:03;;;;;;;71.85;21.92;;;;;;;2.31;100.00;97254.53;5159594;27;20046;-69
2023/01/17 12:32:46;;;;;;;117.45;24.35;;;;;;;2.52;100.00;97236.00;5159156;27;20118;-63
2023/01/17 12:35:17;;;;;;;167.65;22.40;;;;;;;2.47;100.00;97230.91;5159852;27;20137;-59
2023/01/17 12:37:46;;;;;;;61.95;23.13;;;;;;;2.61;100.00;97227.66;5159747;27;20050;-72
2023/01/17 12:40:28;;;;;;;102.72;25.98;;;;;;;2.70;100.00;97214.69;5159005;27;20054;-64
2023/01/17 12:43:02;;;;;;;74.78;24.48;;;;;;;2.88;100.00;97212.28;5159240;27;20042;-59
2023/01/17 12:45:35;;;;;;;81.30;22.35;;;;;;;2.73;100.00;97219.38;5158932;27;20046;-70
2023/01/17 12:48:06;;;;;;;57.17;20.55;;;;;;;2.49;100.00;97214.28;5159287;27;20062;-58
2023/01/17 12:50:38;;;;;;;102.75;28.63;;;;;;;2.80;100.00;97208.69;5158911;27;20121;-60
2023/01/17 12:53:13;;;;;;;104.10;21.50;;;;;;;2.77;100.00;97214.03;5158808;27;20051;-67
2023/01/17 12:55:49;;;;;;;82.45;24.00;;;;;;;2.77;100.00;97214.81;5158997;27;20051;-67
2023/01/17 12:58:19;;;;;;;114.55;25.50;;;;;;;2.44;100.00;97231.59;5158863;27;20082;-60